createdAt,value
2022-12-08T00:01:18.403Z,76.68
2022-12-08T00:03:46.508Z,76.83
2022-12-08T00:06:42.312Z,76.52
2022-12-08T00:09:24.281Z,76.79
2022-12-08T00:11:54.244Z,76.78
2022-12-08T00:14:24.712Z,76.85
2022-12-08T00:16:52.380Z,77.07
2022-12-08T00:19:19.962Z,76.47
2022-12-08T00:21:48.881Z,76.70
2022-12-08T00:24:16.717Z,76.56
2022-12-08T00:26:44.203Z,76.80
2022-12-08T00:29:17.023Z,77.10
2022-12-08T00:31:44.988Z,76.83
2022-12-08T00:34:13.308Z,77.12
2022-12-08T00:36:40.898Z,77.02
2022-12-08T00:39:09.776Z,76.77
2022-12-08T00:41:54.904Z,77.13
2022-12-08T00:44:22.376Z,76.71
2022-12-08T00:46:50.642Z,76.90
2022-12-08T00:49:19.063Z,77.11
2022-12-08T00:51:46.657Z,77.10
2022-12-08T00:54:15.740Z,76.94
2022-12-08T00:56:43.198Z,77.20
2022-12-08T00:59:11.272Z,76.98
2022-12-08T01:01:38.929Z,77.03
2022-12-08T01:04:07.561Z,76.94
2022-12-08T01:06:35.964Z,77.43
2022-12-08T01:09:04.438Z,77.08
2022-12-08T01:11:34.100Z,77.42
2022-12-08T01:14:02.071Z,77.39
2022-12-08T01:16:31.768Z,77.41
2022-12-08T01:19:00.348Z,77.38
2022-12-08T01:21:28.891Z,77.47
2022-12-08T01:23:57.935Z,77.42
2022-12-08T01:26:25.379Z,77.46
2022-12-08T01:28:54.159Z,77.70
2022-12-08T01:31:22.927Z,77.57
2022-12-08T01:33:51.218Z,77.62
2022-12-08T01:36:21.711Z,77.77
2022-12-08T01:38:49.288Z,77.72
2022-12-08T01:41:18.453Z,77.76
2022-12-08T01:43:59.584Z,77.55
2022-12-08T01:46:28.745Z,77.72
2022-12-08T01:49:08.099Z,77.96
2022-12-08T01:51:39.474Z,77.65
2022-12-08T01:54:08.047Z,77.95
2022-12-08T01:56:42.818Z,78.09
2022-12-08T01:59:13.327Z,78.16
2022-12-08T02:01:41.089Z,77.71
2022-12-08T02:04:08.623Z,78.08
2022-12-08T02:06:40.544Z,78.17
2022-12-08T02:09:09.148Z,78.21
2022-12-08T02:11:36.582Z,78.25
2022-12-08T02:14:08.369Z,78.33
2022-12-08T02:16:43.964Z,78.38
2022-12-08T02:19:38.214Z,78.39
2022-12-08T02:22:12.576Z,78.84
2022-12-08T02:24:46.573Z,78.95
2022-12-08T02:27:38.098Z,79.00
2022-12-08T02:30:12.500Z,79.39
2022-12-08T02:33:04.272Z,79.36
2022-12-08T02:35:37.863Z,79.29
2022-12-08T02:38:12.067Z,79.57
2022-12-08T02:40:49.366Z,79.61
2022-12-08T02:43:27.037Z,79.49
2022-12-08T02:46:00.308Z,79.78
2022-12-08T02:48:28.596Z,79.63
2022-12-08T02:50:57.552Z,79.80
2022-12-08T02:53:25.110Z,80.13
2022-12-08T02:56:01.438Z,80.67
2022-12-08T02:58:56.736Z,79.98
2022-12-08T03:01:43.116Z,80.57
2022-12-08T03:04:22.281Z,80.71
2022-12-08T03:06:59.114Z,80.90
2022-12-08T03:09:37.544Z,82.05
2022-12-08T03:12:11.962Z,81.60
2022-12-08T03:14:41.745Z,81.35
2022-12-08T03:17:10.103Z,81.73
2022-12-08T03:19:41.499Z,83.24
2022-12-08T03:22:12.512Z,82.75
2022-12-08T03:24:43.089Z,82.54
2022-12-08T03:27:13.669Z,82.72
2022-12-08T03:29:41.668Z,83.60
2022-12-08T03:32:17.288Z,83.40
2022-12-08T03:34:48.894Z,83.70
2022-12-08T03:37:18.286Z,83.92
2022-12-08T03:39:45.966Z,84.80
2022-12-08T03:42:13.464Z,84.28
2022-12-08T03:44:40.902Z,85.24
2022-12-08T03:47:08.313Z,85.89
2022-12-08T03:49:35.765Z,85.69
2022-12-08T03:52:03.200Z,86.40
2022-12-08T03:54:31.989Z,87.21
2022-12-08T03:56:59.402Z,88.61
2022-12-08T03:59:26.880Z,89.26
2022-12-08T04:01:54.484Z,90.47
2022-12-08T04:04:21.948Z,91.42
2022-12-08T04:06:50.460Z,92.07
2022-12-08T04:09:18.023Z,92.67
2022-12-08T04:11:46.753Z,92.61
2022-12-08T04:14:14.258Z,92.33
2022-12-08T04:16:41.849Z,92.84
2022-12-08T04:19:09.670Z,93.01
2022-12-08T04:21:37.206Z,92.33
2022-12-08T04:24:04.744Z,93.09
2022-12-08T04:26:32.145Z,92.47
2022-12-08T04:29:00.895Z,93.32
2022-12-08T04:31:28.448Z,92.68
2022-12-08T04:33:55.975Z,92.83
2022-12-08T04:36:23.438Z,92.23
2022-12-08T04:38:51.189Z,92.55
2022-12-08T04:41:18.681Z,92.85
2022-12-08T04:43:46.187Z,93.43
2022-12-08T04:46:14.982Z,93.53
2022-12-08T04:48:42.473Z,94.17
2022-12-08T04:51:16.317Z,93.36
2022-12-08T04:53:46.719Z,93.81
2022-12-08T04:56:15.772Z,93.96
2022-12-08T04:58:43.261Z,93.72
2022-12-08T05:01:11.271Z,94.15
2022-12-08T05:03:40.351Z,93.61
2022-12-08T05:06:08.147Z,92.71
2022-12-08T05:08:35.633Z,93.04
2022-12-08T05:11:04.697Z,92.76
2022-12-08T05:13:32.683Z,92.59
2022-12-08T05:16:05.507Z,93.35
2022-12-08T05:18:32.982Z,92.46
2022-12-08T05:21:02.031Z,92.15
2022-12-08T05:23:29.600Z,91.64
2022-12-08T05:25:57.078Z,91.53
2022-12-08T05:28:41.760Z,91.74
2022-12-08T05:31:10.471Z,91.31
2022-12-08T05:33:38.015Z,90.63
2022-12-08T05:36:07.518Z,91.33
2022-12-08T05:38:34.937Z,90.95
2022-12-08T05:41:02.678Z,90.71
2022-12-08T05:43:30.118Z,91.05
2022-12-08T05:45:57.686Z,90.91
2022-12-08T05:48:25.172Z,91.04
2022-12-08T05:50:53.825Z,90.74
2022-12-08T05:53:22.578Z,91.48
2022-12-08T05:55:50.034Z,91.89
2022-12-08T05:58:19.257Z,92.58
2022-12-08T06:00:47.266Z,92.72
2022-12-08T06:03:16.442Z,92.69
2022-12-08T06:05:46.292Z,92.06
2022-12-08T06:08:14.414Z,92.93
2022-12-08T06:10:44.991Z,92.40
2022-12-08T06:13:12.935Z,94.03
2022-12-08T06:15:41.475Z,93.39
2022-12-08T06:18:09.349Z,93.72
2022-12-08T06:20:36.785Z,93.05
2022-12-08T06:23:04.507Z,93.12
2022-12-08T06:25:31.975Z,93.16
2022-12-08T06:28:00.714Z,92.75
2022-12-08T06:30:28.584Z,92.45
2022-12-08T06:32:56.068Z,93.59
2022-12-08T06:35:23.519Z,93.28
2022-12-08T06:37:51.696Z,92.90
2022-12-08T06:40:19.100Z,93.31
2022-12-08T06:42:47.140Z,92.38
2022-12-08T06:45:18.250Z,92.49
2022-12-08T06:47:46.009Z,92.31
2022-12-08T06:50:14.166Z,91.60
2022-12-08T06:52:51.786Z,93.17
2022-12-08T06:55:50.780Z,92.92
2022-12-08T06:58:08.503Z,93.82
2022-12-08T07:00:37.458Z,93.63
2022-12-08T07:03:04.896Z,93.97
2022-12-08T07:05:32.408Z,94.11
2022-12-08T07:07:59.904Z,94.23
2022-12-08T07:10:27.577Z,94.29
2022-12-08T07:12:55.033Z,94.42
2022-12-08T07:15:22.560Z,94.27
2022-12-08T07:17:56.334Z,94.45
2022-12-08T07:20:27.247Z,94.62
2022-12-08T07:22:55.092Z,94.35
2022-12-08T07:25:23.114Z,94.04
2022-12-08T07:27:51.757Z,94.17
2022-12-08T07:30:19.915Z,94.19
2022-12-08T07:32:47.634Z,93.64
2022-12-08T07:38:18.801Z,94.55
2022-12-08T07:40:46.720Z,94.39
2022-12-08T07:43:14.461Z,94.38
2022-12-08T07:45:42.560Z,94.49
2022-12-08T07:48:16.027Z,93.54
2022-12-08T07:50:43.868Z,93.96
2022-12-08T07:53:11.568Z,93.50
2022-12-08T07:55:42.440Z,93.80
2022-12-08T07:58:10.100Z,94.27
2022-12-08T08:00:38.758Z,94.26
2022-12-08T08:03:09.064Z,94.65
2022-12-08T08:05:36.787Z,94.50
2022-12-08T08:08:05.020Z,94.52
2022-12-08T08:10:32.965Z,94.39
2022-12-08T08:13:02.635Z,94.11
2022-12-08T08:15:32.087Z,93.74
2022-12-08T08:17:59.767Z,93.75
2022-12-08T08:20:27.490Z,93.58
2022-12-08T08:22:55.223Z,93.79
2022-12-08T08:25:23.823Z,93.98
2022-12-08T08:27:53.668Z,93.95
2022-12-08T08:30:23.365Z,93.91
2022-12-08T08:32:55.444Z,93.36
2022-12-08T08:35:23.581Z,94.19
2022-12-08T08:39:06.697Z,94.57
2022-12-08T08:41:50.881Z,94.14
2022-12-08T08:44:47.468Z,94.31
2022-12-08T08:47:17.282Z,94.31
2022-12-08T08:50:08.500Z,94.35
2022-12-08T08:52:36.757Z,94.24
2022-12-08T08:55:05.564Z,94.09
2022-12-08T08:57:33.742Z,94.35
2022-12-08T09:00:02.479Z,94.04
2022-12-08T09:02:31.756Z,94.44
2022-12-08T09:04:59.734Z,94.15
2022-12-08T09:07:33.658Z,94.07
2022-12-08T09:10:02.170Z,93.86
2022-12-08T09:12:30.170Z,93.57
2022-12-08T09:14:57.959Z,94.41
2022-12-08T09:17:25.764Z,93.99
2022-12-08T09:19:54.674Z,93.89
2022-12-08T09:22:23.803Z,94.15
2022-12-08T09:24:51.524Z,94.49
2022-12-08T09:27:22.221Z,94.16
2022-12-08T09:29:49.958Z,94.41
2022-12-08T09:32:17.565Z,93.65
2022-12-08T09:34:50.484Z,94.15
2022-12-08T09:37:26.157Z,94.13
2022-12-08T09:40:07.894Z,93.73
2022-12-08T09:42:46.022Z,93.49
2022-12-08T09:45:18.847Z,93.66
2022-12-08T09:48:01.632Z,93.68
2022-12-08T09:50:34.440Z,93.63
2022-12-08T09:53:08.454Z,93.52
2022-12-08T09:55:42.549Z,93.75
2022-12-08T09:58:20.565Z,93.76
2022-12-08T10:00:48.648Z,93.72
2022-12-08T10:03:17.220Z,93.38
2022-12-08T10:05:53.100Z,93.71
2022-12-08T10:08:30.320Z,93.09
2022-12-08T10:11:00.822Z,92.87
2022-12-08T10:13:38.886Z,93.51
2022-12-08T10:16:23.083Z,93.47
2022-12-08T10:19:01.954Z,93.10
2022-12-08T10:21:33.063Z,93.50
2022-12-08T10:24:07.029Z,93.44
2022-12-08T10:26:34.810Z,93.33
2022-12-08T10:29:03.708Z,92.99
2022-12-08T10:31:32.758Z,93.35
2022-12-08T10:34:02.619Z,93.39
2022-12-08T10:36:47.175Z,93.43
2022-12-08T10:39:33.855Z,93.50
2022-12-08T10:42:10.864Z,93.37
2022-12-08T10:44:54.468Z,93.51
2022-12-08T10:47:24.196Z,92.82
2022-12-08T10:50:13.944Z,92.69
2022-12-08T10:52:43.919Z,93.30
2022-12-08T10:55:18.921Z,93.52
2022-12-08T10:57:48.851Z,92.75
2022-12-08T11:00:24.463Z,93.58
2022-12-08T11:02:58.568Z,93.61
2022-12-08T11:05:30.215Z,92.62
2022-12-08T11:08:00.424Z,92.45
2022-12-08T11:10:44.873Z,92.45
2022-12-08T11:13:20.912Z,92.82
2022-12-08T11:15:48.775Z,93.81
2022-12-08T11:18:40.077Z,93.94
2022-12-08T11:21:13.949Z,93.26
2022-12-08T11:23:44.948Z,93.45
2022-12-08T11:26:22.346Z,93.20
2022-12-08T11:28:49.957Z,93.28
2022-12-08T11:31:29.439Z,92.61
2022-12-08T11:33:57.248Z,92.51
2022-12-08T11:36:28.054Z,92.51
2022-12-08T11:38:59.212Z,92.25
2022-12-08T11:41:32.440Z,92.35
2022-12-08T11:44:21.237Z,92.00
2022-12-08T11:46:53.858Z,92.67
2022-12-08T11:49:21.696Z,92.54
2022-12-08T11:51:54.766Z,93.00
2022-12-08T11:54:31.585Z,92.84
2022-12-08T11:57:03.007Z,92.73
2022-12-08T11:59:44.387Z,92.69
2022-12-08T12:02:19.008Z,92.79
2022-12-08T12:04:55.271Z,93.27
2022-12-08T12:07:42.904Z,93.31
2022-12-08T12:10:36.624Z,92.95
2022-12-08T12:13:13.597Z,92.69
2022-12-08T12:16:35.723Z,94.02
2022-12-08T12:19:06.563Z,94.22
2022-12-08T12:21:38.224Z,93.91
2022-12-08T12:24:09.505Z,93.47
2022-12-08T12:26:45.596Z,94.62
2022-12-08T12:29:19.516Z,94.14
2022-12-08T12:31:51.646Z,93.06
2022-12-08T12:35:01.371Z,93.58
2022-12-08T12:43:39.953Z,93.21
2022-12-08T12:47:18.267Z,92.82
2022-12-08T12:50:42.109Z,93.25
2022-12-08T12:57:21.361Z,94.08
2022-12-08T13:00:19.614Z,93.42
2022-12-08T13:06:41.491Z,92.92
2022-12-08T13:12:15.090Z,93.80
2022-12-08T13:14:59.420Z,93.01
2022-12-08T13:17:59.984Z,92.63
2022-12-08T13:20:46.478Z,92.96
2022-12-08T13:27:43.398Z,93.03
2022-12-08T13:31:03.219Z,92.74
2022-12-08T13:33:51.125Z,92.80
2022-12-08T13:36:26.946Z,92.74
2022-12-08T13:38:57.087Z,92.84
2022-12-08T13:41:31.949Z,92.63
2022-12-08T13:45:11.372Z,92.63
2022-12-08T13:47:31.693Z,92.50
2022-12-08T13:51:23.652Z,93.17
2022-12-08T13:58:33.664Z,92.78
2022-12-08T14:01:07.074Z,93.58
2022-12-08T14:04:12.402Z,93.84
2022-12-08T14:06:37.765Z,93.37
2022-12-08T14:09:12.678Z,92.95
2022-12-08T14:11:44.629Z,92.29
2022-12-08T14:14:32.617Z,92.42
2022-12-08T14:17:10.685Z,92.54
2022-12-08T14:19:38.694Z,92.33
2022-12-08T14:22:13.157Z,92.55
2022-12-08T14:24:46.259Z,92.02
2022-12-08T14:27:19.234Z,92.43
2022-12-08T14:29:50.587Z,92.21
2022-12-08T14:32:23.365Z,92.43
2022-12-08T14:34:56.750Z,92.03
2022-12-08T14:37:28.762Z,91.99
2022-12-08T14:40:04.336Z,92.10
2022-12-08T14:42:45.044Z,91.91
2022-12-08T14:45:29.136Z,92.05
2022-12-08T14:47:59.046Z,92.07
2022-12-08T14:50:45.491Z,92.04
2022-12-08T14:56:24.722Z,93.54
2022-12-08T14:59:11.095Z,92.71
2022-12-08T15:01:41.214Z,93.29
2022-12-08T15:04:27.388Z,93.33
2022-12-08T15:07:09.594Z,93.00
2022-12-08T15:09:41.053Z,92.55
2022-12-08T15:12:27.342Z,92.48
2022-12-08T15:14:59.660Z,92.02
2022-12-08T15:17:37.003Z,92.08
2022-12-08T15:20:11.163Z,92.34
2022-12-08T15:25:32.152Z,92.65
2022-12-08T15:28:05.973Z,92.32
2022-12-08T15:30:39.836Z,91.87
2022-12-08T15:33:09.058Z,92.22
2022-12-08T15:38:26.696Z,92.38
2022-12-08T15:41:06.316Z,92.27
2022-12-08T15:43:43.050Z,93.04
2022-12-08T15:46:14.348Z,92.58
2022-12-08T15:48:47.585Z,92.31
2022-12-08T15:51:28.416Z,92.97
2022-12-08T15:54:01.325Z,92.29
2022-12-08T15:56:50.618Z,92.89
2022-12-08T15:59:31.654Z,92.60
2022-12-08T16:02:02.641Z,92.25
2022-12-08T16:05:18.332Z,92.15
2022-12-08T16:07:24.214Z,92.44
2022-12-08T16:09:52.324Z,92.51
2022-12-08T16:18:18.864Z,92.12
2022-12-08T16:23:42.820Z,92.41
2022-12-08T16:26:28.460Z,92.50
2022-12-08T16:29:00.949Z,91.94
2022-12-08T16:31:29.828Z,91.92
2022-12-08T16:33:57.319Z,91.70
2022-12-08T16:36:24.772Z,91.69
2022-12-08T16:38:52.263Z,91.72
2022-12-08T16:41:37.437Z,91.94
2022-12-08T16:44:06.715Z,91.92
2022-12-08T16:46:36.301Z,92.74
2022-12-08T16:49:04.253Z,92.03
2022-12-08T16:51:31.718Z,92.19
2022-12-08T16:53:59.129Z,92.34
2022-12-08T16:56:32.530Z,92.12
2022-12-08T16:59:01.099Z,92.60
2022-12-08T17:01:28.697Z,92.43
2022-12-08T17:06:45.022Z,92.34
2022-12-08T17:09:12.455Z,92.08
2022-12-08T17:11:43.398Z,91.92
2022-12-08T17:14:11.601Z,92.97
2022-12-08T17:16:39.079Z,92.39
2022-12-08T17:19:07.878Z,92.44
2022-12-08T17:21:35.369Z,92.52
2022-12-08T17:24:02.784Z,92.14
2022-12-08T17:26:30.263Z,92.14
2022-12-08T17:29:00.843Z,92.60
2022-12-08T17:31:30.122Z,92.55
2022-12-08T17:33:59.067Z,92.73
2022-12-08T17:36:28.036Z,92.52
2022-12-08T17:38:56.158Z,92.51
2022-12-08T17:41:23.581Z,92.58
2022-12-08T17:43:51.086Z,92.07
2022-12-08T17:46:19.846Z,92.42
2022-12-08T17:48:47.786Z,92.39
2022-12-08T17:51:15.884Z,91.89
2022-12-08T17:53:45.512Z,92.02
2022-12-08T17:56:16.431Z,92.64
2022-12-08T17:58:45.706Z,92.47
2022-12-08T18:01:15.043Z,91.75
2022-12-08T18:03:42.488Z,91.71
2022-12-08T18:06:12.266Z,91.71
2022-12-08T18:08:40.222Z,92.13
2022-12-08T18:11:12.661Z,92.53
2022-12-08T18:13:40.129Z,92.30
2022-12-08T18:16:07.893Z,92.06
2022-12-08T18:18:36.478Z,91.88
2022-12-08T18:21:03.906Z,91.98
2022-12-08T18:23:31.315Z,92.27
2022-12-08T18:25:58.702Z,92.42
2022-12-08T18:28:27.435Z,92.20
2022-12-08T18:30:54.914Z,92.18
2022-12-08T18:33:22.364Z,92.63
2022-12-08T18:35:49.988Z,92.61
2022-12-08T18:38:17.458Z,92.36
2022-12-08T18:40:44.902Z,92.30
2022-12-08T18:43:12.284Z,92.59
2022-12-08T18:45:41.096Z,92.36
2022-12-08T18:48:08.854Z,92.41
2022-12-08T18:50:36.300Z,91.80
2022-12-08T18:53:03.760Z,91.87
2022-12-08T18:55:31.160Z,92.14
2022-12-08T18:57:58.635Z,92.32
2022-12-08T19:00:26.113Z,92.47
2022-12-08T19:02:54.978Z,92.69
2022-12-08T19:05:22.481Z,92.01
2022-12-08T19:07:49.946Z,92.30
2022-12-08T19:10:17.532Z,92.53
2022-12-08T19:12:44.935Z,92.27
2022-12-08T19:15:12.873Z,92.20
2022-12-08T19:17:40.338Z,92.02
2022-12-08T19:20:10.328Z,92.44
2022-12-08T19:22:37.883Z,92.22
2022-12-08T19:25:06.153Z,92.16
2022-12-08T19:27:34.690Z,91.91
2022-12-08T19:30:02.217Z,91.45
2022-12-08T19:32:30.926Z,92.02
2022-12-08T19:34:58.379Z,91.98
2022-12-08T19:37:50.787Z,91.79
2022-12-08T19:40:37.752Z,91.71
2022-12-08T19:43:22.961Z,91.61
2022-12-08T19:45:50.865Z,91.82
2022-12-08T19:48:19.041Z,91.83
2022-12-08T19:50:46.837Z,91.71
2022-12-08T19:53:16.274Z,91.83
2022-12-08T19:55:46.240Z,91.78
2022-12-08T19:58:14.533Z,91.71
2022-12-08T20:00:54.461Z,91.92
2022-12-08T20:03:23.579Z,91.79
2022-12-08T20:05:54.093Z,91.42
2022-12-08T20:08:22.165Z,91.40
2022-12-08T20:10:56.089Z,91.55
2022-12-08T20:13:42.062Z,91.87
2022-12-08T20:16:10.428Z,91.31
2022-12-08T20:18:38.637Z,91.72
2022-12-08T20:21:07.620Z,91.43
2022-12-08T20:23:35.631Z,91.73
2022-12-08T20:26:07.125Z,91.93
2022-12-08T20:28:35.063Z,91.49
2022-12-08T20:31:03.526Z,91.81
2022-12-08T20:33:31.809Z,91.69
2022-12-08T20:36:00.969Z,91.83
2022-12-08T20:38:29.065Z,91.88
2022-12-08T20:40:57.873Z,92.08
2022-12-08T20:43:26.917Z,92.04
2022-12-08T20:45:54.535Z,92.47
2022-12-08T20:48:22.213Z,92.51
2022-12-08T20:50:51.382Z,92.40
2022-12-08T20:53:19.072Z,92.09
2022-12-08T20:55:47.161Z,91.67
2022-12-08T20:58:15.055Z,91.51
2022-12-08T21:00:44.111Z,91.59
2022-12-08T21:03:13.161Z,91.47
2022-12-08T21:05:41.354Z,91.44
2022-12-08T21:08:09.287Z,91.58
2022-12-08T21:10:43.473Z,91.59
2022-12-08T21:13:11.586Z,91.22
2022-12-08T21:15:39.307Z,91.22
2022-12-08T21:18:08.384Z,91.53
2022-12-08T21:20:36.428Z,91.31
2022-12-08T21:23:04.050Z,91.30
2022-12-08T21:25:32.041Z,91.65
2022-12-08T21:27:59.576Z,91.45
2022-12-08T21:30:27.609Z,91.37
2022-12-08T21:32:55.273Z,91.73
2022-12-08T21:35:24.585Z,91.34
2022-12-08T21:37:52.337Z,91.53
2022-12-08T21:40:20.127Z,91.52
2022-12-08T21:42:47.725Z,91.46
2022-12-08T21:45:17.673Z,91.33
2022-12-08T21:47:46.452Z,91.43
2022-12-08T21:50:15.396Z,91.69
2022-12-08T21:52:46.595Z,91.58
2022-12-08T21:55:16.108Z,91.29
2022-12-08T21:57:44.248Z,91.66
2022-12-08T22:00:15.905Z,91.23
2022-12-08T22:02:43.934Z,91.89
2022-12-08T22:05:12.310Z,91.73
2022-12-08T22:07:42.085Z,91.27
2022-12-08T22:10:12.303Z,91.68
2022-12-08T22:12:40.271Z,91.54
2022-12-08T22:15:09.815Z,91.37
2022-12-08T22:17:38.803Z,91.39
2022-12-08T22:20:08.715Z,91.39
2022-12-08T22:22:36.941Z,91.00
2022-12-08T22:25:06.970Z,91.64
2022-12-08T22:27:36.177Z,91.34
2022-12-08T22:30:05.133Z,91.14
2022-12-08T22:32:33.677Z,90.90
2022-12-08T22:35:01.682Z,91.42
2022-12-08T22:37:30.539Z,91.24
2022-12-08T22:39:58.787Z,91.19
2022-12-08T22:42:26.654Z,91.24
2022-12-08T22:44:55.643Z,91.25
2022-12-08T22:47:23.446Z,91.18
2022-12-08T22:49:51.337Z,91.41
2022-12-08T22:52:18.931Z,91.66
2022-12-08T22:54:46.787Z,91.39
2022-12-08T22:57:14.462Z,91.58
2022-12-08T22:59:42.264Z,91.23
2022-12-08T23:02:11.457Z,91.47
2022-12-08T23:04:39.516Z,91.35
2022-12-08T23:07:07.180Z,91.51
2022-12-08T23:09:34.723Z,91.67
2022-12-08T23:12:02.297Z,91.94
2022-12-08T23:14:30.014Z,92.05
2022-12-08T23:16:57.660Z,91.50
2022-12-08T23:19:26.537Z,91.77
2022-12-08T23:21:54.100Z,91.56
2022-12-08T23:24:21.679Z,91.14
2022-12-08T23:26:49.318Z,91.41
2022-12-08T23:29:16.945Z,91.38
2022-12-08T23:31:44.721Z,91.41
2022-12-08T23:34:12.586Z,91.36
2022-12-08T23:36:41.443Z,91.78
2022-12-08T23:39:09.171Z,91.81
2022-12-08T23:41:37.063Z,91.45
2022-12-08T23:44:04.669Z,91.52
2022-12-08T23:46:32.301Z,91.49
2022-12-08T23:49:00.343Z,92.61
2022-12-08T23:51:27.968Z,91.97
2022-12-08T23:53:57.127Z,91.37
2022-12-08T23:56:29.981Z,91.38
2022-12-08T23:58:58.060Z,91.99
